Latest Coastal Weather Observations for Kowanyama

IDQ60701

Issued at 7:25 pm EST Monday 24 November 2014 (issued every 10 minutes, with the page automatically refreshed every 10 minutes)

About coastal observations | Map of coastal stations | Coastal observations for QLD | Marine services | Other Formats
Station Details ID: 029038 Name: KOWANYAMA AIRPORT Lat: -15.48 Lon: 141.75 Height: 9.6 m
Data from the previous 72 hours. | See also: Recent months at Kowanyama
Date/Time
EST
Temp

°C
Wind Pressure Rain
since 9am
mm
Weather Cloud Vis
km
Sea
Height
m
Swell
Dir
 
Speed
knots
Gust
knots
hPa Trend Height
m
Period
s
Dir
24/07:00pm 30.1 W 7 9 1006.9 - 0.0 - Partly cloudy - - - - -
24/06:30pm 31.1 WNW 10 12 1006.5 - 0.0 - Partly cloudy - - - - -
24/06:00pm 32.0 W 10 13 1006.2 - 0.0 - Mostly clear - - - - -
24/05:30pm 33.6 W 11 15 1006.0 - 0.0 - Partly cloudy - - - - -
24/05:00pm 33.7 WNW 11 16 1005.8 - 0.0 - - - - - - -
24/04:30pm 33.7 W 13 16 1005.7 - 0.0 - Partly cloudy - - - - -
24/04:00pm 34.3 WSW 10 13 1005.9 - 0.0 - Partly cloudy - - - - -
24/03:30pm 36.6 ENE 6 10 1006.2 - 0.0 - Partly cloudy - - - - -
24/03:00pm 37.1 ESE 9 13 1006.6 - 0.0 - Mostly clear - - - - -
24/02:30pm 36.3 E 6 13 1007.1 - 0.0 - Partly cloudy - - - - -
24/02:00pm 36.6 E 5 12 1007.6 - 0.0 - - - - - - -
24/01:30pm 36.3 N 5 12 1008.2 - 0.0 - - - - - - -
24/01:00pm 35.3 E 5 13 1008.8 - 0.0 - - - - - - -
24/12:30pm 34.5 E 6 9 1009.3 - 0.0 - - - - - - -
24/12:00pm 33.9 SE 10 13 1010.0 - 0.0 - - - - - - -
24/11:30am 33.6 NE 5 9 1010.5 - 0.0 - - - - - - -
24/11:00am 32.3 E 10 16 1011.0 - 0.0 - - - - - - -
24/10:30am 31.2 NE 9 13 1011.5 - 0.0 - - - - - - -
24/10:00am 30.7 ENE 9 13 1011.7 - 0.0 - - - - - - -
24/09:30am 29.4 NE 8 11 1012.1 - 0.0 - - - - - - -
24/09:00am 28.3 ENE 7 11 1012.3 - 0.0 - - - - - - -
24/08:30am 27.6 NE 8 12 1012.2 - 0.0 - - - - - - -
24/08:00am 27.3 E 5 7 1012.4 - 0.0 - - - - - - -
24/07:30am 26.9 NE 5 7 1012.0 - 0.0 - - - - - - -
24/07:00am 26.9 ENE 6 11 1011.4 - 0.0 - Partly cloudy - - - - -
24/06:30am 26.9 ENE 5 9 1011.1 - 0.0 - - - - - - -
24/06:00am 27.1 ENE 4 8 1011.0 - 0.0 - Cloudy - - - - -
24/05:30am 27.2 ENE 5 8 1010.7 - 0.0 - Partly cloudy - - - - -
24/05:00am 27.2 ENE 4 7 1010.6 - 0.0 - Partly cloudy - - - - -
24/04:30am 27.4 NE 5 7 1010.1 - 0.0 - Partly cloudy - - - - -
24/04:00am 27.6 NE 3 8 1010.5 - 0.0 - Partly cloudy - - - - -
24/03:30am 27.7 NE 5 9 1009.6 - 0.0 - - - - - - -
24/03:00am 28.0 NE 7 9 1010.1 - 0.0 - - - - - - -
24/02:30am 28.3 NE 7 13 1009.8 - 0.0 - - - - - - -
24/02:00am 28.8 NE 8 14 1010.3 - 0.0 - Cloudy - - - - -
24/01:30am 28.6 NNE 5 10 1010.8 - 0.0 - Cloudy - - - - -
24/01:00am 28.1 NNE 3 5 1010.7 - 0.0 - - - - - - -
24/12:30am 28.3 N 2 5 1010.9 - 0.0 - - - - - - -
24/12:00am 28.4 N 4 6 1011.1 - 0.0 - - - - - - -
 
Date/Time
EST
Temp

°C
Wind Pressure Rain
since 9am
mm
Weather Cloud Vis
km
Sea
Height
m
Swell
Dir
 
Speed
knots
Gust
knots
hPa Trend Height
m
Period
s
Dir
23/11:30pm 28.7 NNE 3 5 1011.4 - 0.0 - Partly cloudy - - - - -
23/11:00pm 28.8 NNE 3 5 1011.6 - 0.0 - Partly cloudy - - - - -
23/10:30pm 28.9 NNE 5 7 1011.4 - 0.0 - Partly cloudy - - - - -
23/10:00pm 28.6 N 4 8 1010.6 - 0.0 - Partly cloudy - - - - -
23/09:30pm 28.7 WNW 4 5 1009.2 - 0.0 - - - - - - -
23/09:00pm 28.7 WSW 6 8 1008.9 - 0.0 - - - - - - -
23/08:30pm 28.9 WSW 7 9 1008.8 - 0.0 - Partly cloudy - - - - -
23/08:00pm 29.1 W 7 9 1008.7 - 0.0 - Partly cloudy - - - - -
23/07:30pm 29.6 W 7 9 1008.3 - 0.0 - Partly cloudy - - - - -
23/07:00pm 29.9 W 8 11 1008.1 - 0.0 - - - - - - -
23/06:30pm 30.6 W 9 12 1008.0 - 0.0 - - - - - - -
23/06:00pm 31.8 W 11 15 1007.7 - 0.0 - - - - - - -
23/05:30pm 32.6 W 11 13 1006.9 - 0.0 - - - - - - -
23/05:00pm 33.8 W 12 15 1007.0 - 0.0 - Partly cloudy - - - - -
23/04:30pm 35.0 W 12 16 1007.0 - 0.0 - Partly cloudy - - - - -
23/04:00pm 35.5 W 13 16 1007.1 - 0.0 - Partly cloudy - - - - -
23/03:30pm 36.6 WNW 9 13 1007.4 - 0.0 - Partly cloudy - - - - -
23/03:00pm 36.1 WNW 11 15 1007.8 - 0.0 - Mostly cloudy - - - - -
23/02:30pm 35.9 NW 10 15 1008.3 - 0.0 - Partly cloudy - - - - -
23/02:00pm 36.6 ENE 4 7 1008.9 - 0.0 - Partly cloudy - - - - -
23/01:30pm 36.5 S 6 10 1009.5 - 0.0 - - - - - - -
23/01:00pm 35.5 SSE 5 8 1010.0 - 0.0 - - - - - - -
23/12:30pm 35.4 ENE 6 9 1010.7 - 0.0 - Partly cloudy - - - - -
23/12:00pm 34.5 NW 4 8 1011.3 - 0.0 - - - - - - -
23/11:30am 33.8 E 4 8 1011.8 - 0.0 - - - - - - -
23/11:00am 34.0 WNW 4 6 1012.5 - 0.0 - - - - - - -
23/10:30am 32.6 NE 7 11 1012.9 - 0.0 - - - - - - -
23/10:00am 32.0 NE 5 9 1013.1 - 0.0 - - - - - - -
23/09:30am 31.2 ENE 7 13 1013.1 - 0.0 - - - - - - -
23/09:00am 29.4 ENE 9 14 1013.2 - 0.0 - - - - - - -
23/08:30am 28.3 NE 8 12 1013.1 - 0.0 - - - - - - -
23/08:00am 28.1 ENE 5 8 1013.2 - 0.0 - - - - - - -
23/07:30am 27.3 NE 4 6 1012.7 - 0.0 - - - - - - -
23/07:00am 26.8 N 2 4 1012.6 - 0.0 - Partly cloudy - - - - -
23/06:30am 27.0 NNE 4 5 1012.2 - 0.0 - Partly cloudy - - - - -
23/06:00am 27.3 N 4 7 1011.8 - 0.0 - Cloudy - - - - -
23/05:30am 27.5 N 4 6 1011.6 - 0.0 - - - - - - -
23/05:00am 27.7 N 3 5 1011.4 - 0.0 - - - - - - -
23/04:30am 27.8 N 3 4 1011.1 - 0.0 - - - - - - -
23/04:00am 27.8 NNE 2 4 1010.8 - 0.0 - Partly cloudy - - - - -
23/03:30am 27.6 CALM 0 0 1010.5 - 0.0 - Partly cloudy - - - - -
23/03:00am 27.7 SSE 5 6 1010.9 - 0.0 - Cloudy - - - - -
23/02:30am 27.7 CALM 0 0 1010.2 - 0.0 - - - - - - -
23/02:00am 27.6 CALM 0 0 1010.4 - 0.0 - - - - - - -
23/01:30am 27.4 NNE 3 5 1010.1 - 0.0 - Partly cloudy - - - - -
23/01:00am 27.5 NNE 3 4 1010.2 - 0.0 - Partly cloudy - - - - -
23/12:30am 27.6 NNE 3 5 1010.7 - 0.0 - Partly cloudy - - - - -
23/12:00am 27.6 NNE 4 5 1010.8 - 0.0 - - - - - - -
 
Date/Time
EST
Temp

°C
Wind Pressure Rain
since 9am
mm
Weather Cloud Vis
km
Sea
Height
m
Swell
Dir
 
Speed
knots
Gust
knots
hPa Trend Height
m
Period
s
Dir
22/11:30pm 27.8 N 3 4 1010.8 - 0.0 - Partly cloudy - - - - -
22/11:00pm 28.2 NNE 3 5 1011.1 - 0.0 - Partly cloudy - - - - -
22/10:30pm 28.3 N 1 5 1011.0 - 0.0 - Partly cloudy - - - - -
22/10:00pm 28.4 N 5 8 1010.8 - 0.0 - Partly cloudy - - - - -
22/09:30pm 28.5 SW 5 7 1010.1 - 0.0 - - - - - - -
22/09:00pm 28.7 WSW 6 8 1009.6 - 0.0 - Mostly clear - - - - -
22/08:30pm 29.0 SW 6 9 1009.4 - 0.0 - Partly cloudy - - - - -
22/08:00pm 29.2 WSW 6 8 1009.1 - 0.0 - - - - - - -
22/07:30pm 29.7 W 6 8 1008.8 - 0.0 - - - - - - -
22/07:00pm 30.5 WSW 9 13 1008.6 - 0.0 - - - - - - -
22/06:30pm 31.6 WSW 10 15 1008.3 - 0.0 - - - - - - -
22/06:00pm 32.7 W 9 13 1007.7 - 0.0 - - - - - - -
22/05:30pm 33.6 W 12 16 1007.4 - 0.0 - - - - - - -
22/05:00pm 35.0 W 14 17 1007.2 - 0.0 - - - - - - -
22/04:30pm 37.0 W 13 18 1007.2 - 0.0 - - - - - - -
22/04:00pm 37.1 W 14 19 1007.0 - 0.0 - - - - - - -
22/03:30pm 37.8 W 10 14 1007.1 - 0.0 - - - - - - -
22/03:00pm 39.1 ESE 8 12 1007.6 - 0.0 - - - - - - -
22/02:30pm 38.5 E 8 14 1007.9 - 0.0 - - - - - - -
22/02:00pm 39.3 ENE 7 12 1008.3 - 0.0 - - - - - - -
22/01:30pm 38.0 E 6 10 1008.9 - 0.0 - - - - - - -
22/01:00pm 37.2 SSE 5 10 1009.6 - 0.0 - - - - - - -
22/12:30pm 36.4 E 4 9 1009.9 - 0.0 - - - - - - -
22/12:00pm 35.5 NE 6 9 1010.6 - 0.0 - - - - - - -
22/11:30am 35.7 NNE 5 7 1010.9 - 0.0 - - - - - - -
22/11:00am 34.3 NE 7 11 1011.4 - 0.0 - - - - - - -
22/10:30am 33.1 NE 8 11 1011.8 - 0.0 - - - - - - -
22/10:00am 32.2 ENE 7 12 1012.1 - 0.0 - - - - - - -
22/09:30am 31.6 ENE 8 11 1012.4 - 0.0 - - - - - - -
22/09:00am 30.8 NE 8 11 1012.5 - 0.0 - - - - - - -
22/08:30am 29.0 NE 8 12 1012.7 - 0.0 - - - - - - -
22/08:00am 28.1 NE 9 13 1012.5 - 0.0 - - - - - - -
22/07:30am 27.1 NE 6 10 1012.2 - 0.0 - - - - - - -
22/07:00am 26.0 NE 5 8 1012.1 - 0.0 - - - - - - -
22/06:30am 24.8 NNE 4 7 1011.9 - 0.0 - - - - - - -
22/06:00am 24.3 NE 4 5 1011.6 - 0.0 - - - - - - -
22/05:30am 24.5 NE 4 5 1011.5 - 0.0 - - - - - - -
22/05:00am 24.9 E 3 4 1011.6 - 0.0 - - - - - - -
22/04:30am 25.1 E 1 3 1011.4 - 0.0 - - - - - - -
22/04:00am 25.5 SE 2 4 1011.2 - 0.0 - - - - - - -
22/03:30am 25.8 SE 4 6 1011.1 - 0.0 - - - - - - -
22/03:00am 25.6 NE 3 4 1010.7 - 0.0 - - - - - - -
22/02:30am 25.7 E 3 5 1010.9 - 0.0 - - - - - - -
22/02:00am 25.5 CALM 0 0 1010.7 - 0.0 - - - - - - -
22/01:30am 25.9 CALM 0 0 1010.7 - 0.0 - - - - - - -
22/01:00am 26.0 CALM 0 0 1011.0 - 0.0 - - - - - - -
22/12:30am 26.4 NNE 2 4 1011.4 - 0.0 - - - - - - -
22/12:00am 26.6 CALM 0 0 1011.5 - 0.0 - - - - - - -
 
Date/Time
EST
Temp

°C
Wind Pressure Rain
since 9am
mm
Weather Cloud Vis
km
Sea
Height
m
Swell
Dir
 
Speed
knots
Gust
knots
hPa Trend Height
m
Period
s
Dir
21/11:30pm 27.1 N 3 5 1011.4 - 0.0 - - - - - - -
21/11:00pm 27.3 N 2 4 1010.9 - 0.0 - - - - - - -
21/10:30pm 27.5 N 3 4 1010.7 - 0.0 - - - - - - -
21/10:00pm 27.9 N 1 3 1010.7 - 0.0 - - - - - - -
21/09:30pm 28.5 NNW 2 4 1010.4 - 0.0 - - - - - - -
21/09:00pm 28.7 NW 3 5 1009.8 - 0.0 - - - - - - -
21/08:30pm 29.1 W 6 8 1009.2 - 0.0 - - - - - - -
21/08:00pm 29.3 WNW 6 8 1008.5 - 0.0 - - - - - - -
21/07:30pm 29.6 W 7 9 1008.0 - 0.0 - - - - - - -

Other Formats:

Comma delimited format used in spreadsheet applications
http://www.bom.gov.au/fwo/IDQ60701/IDQ60701.94268.axf

JavaScript Object Notation format (JSON) in row-major order
http://www.bom.gov.au/fwo/IDQ60701/IDQ60701.94268.json